Kiawah Island, South Carolina
Current Conditions -  °F | °C
As of 11:15 AM on Friday 24 Oct 2014 (Local Time) from KJZI Reporting Station
Few Clouds Few Clouds  
Wind Chill: 66°   Ceiling: Unl
Heat Index: 66°   Visibility: 10mi
Dew Point: 52°   Wind: 0mph
Humidity: 60%   Direction: NA
Pressure: 30.08"   Gusts: NA
Location:  32.6897°N, 80.0874°W
Report Text: KJZI 241515Z AUTO 00000KT 10SM FEW050 FEW075 FEW110 19/11 A3008 RMK A02 P000
Loading
Personal Weather Stations






























Interactive Weather Map
Tropical Storm Tracking
New forecast layout! Learn more

10-Day Weather Forecast

Advertisements
Track Severe Weather on mobile